Lake Mills, WI (53551)

5:26 PM CDT on August 29, 2015 (GMT -0500)
Johnson Creek | | Change Station
CLOSE
Current Station
Personal Weather Station
Location: Johnson Creek, WI
Elevation: 856 ft
Nearby Weather Stations

Elev 856 ft 43.06 °N, 88.77 °W | Updated 5 minutes ago

Overcast
Overcast
68.5 °F
Feels Like 68.5 °F
N
3.1
Wind Variable Wind from ESE

Today
High -- | Low -- °F
--% Chance of Precip.
Yesterday
High -- | Low -- °F
Precip. -- in
6:16 AM 7:35 PM
Full, 100% visible
Pressure 30.03 in
Visibility 10.0 miles
Clouds Scattered Clouds 1200 ft
Overcast 1900 ft
Dew Point 63 °F
Humidity 82%
Rainfall 1.26 in
Snow Depth Not available.
UV 1 out of 12
Pollen 4.60 out of 12
Air Quality Not available.
Flu Activity Not available.
METAR KRYV 292215Z AUTO 08004KT 10SM SCT012 OVC019 20/20 A3003 RMK AO2 T01950195
Pressure 30.03 in
Visibility 10.0 miles
Clouds Scattered Clouds 1200 ft
Overcast 1900 ft
Dew Point 63 °F
Humidity 82%
Rainfall 1.26 in
Snow Depth Not available.
UV 1 out of 12
Pollen 4.60 out of 12
Air Quality Not available.
Flu Activity Not available.
METAR KRYV 292215Z AUTO 08004KT 10SM SCT012 OVC019 20/20 A3003 RMK AO2 T01950195

10-Day Weather Forecast

×

Almanac

Astronomy

Aug. 29, 2015 Rise Set
Actual Time
Civil Twilight
Nautical Twilight
Astronomical Twilight
Moon
Length of Visible Light
Length of Day
Tomorrow will be .
, % of the Moon is Illuminated

Today's Extremes

State Highs State Lows

Community

WunderPhotos

Upload Photos

1,850,777 photos uploaded!

WunderBlogs® & News

Nearby

Air Quality

  Air Quality AQ Index Pollutant
Not available.

Snow Depth

Station Depth Elevation

Earthquake Activity

City Distance Mag. Time & Date
Minimum magnitude displayed is 2.5.

Coastal Water Temperatures

Place Temperature

Stations

Nearby Weather Stations

Station Location Temp. Windchill Dew Point Humidity Wind Precip. Elev Updated Type